Time;durP1;ratioP1;P1;durP2;ratioP2;P2;SDS_P1;SDS_P2;PMS_P1;PMS_P2;Temp;Humidity;BMP_temperature;BMP_pressure;BME280_temperature;BME280_humidity;BME280_pressure;Samples;Min_cycle;Max_cycle;Signal;HPM_P1;HPM_P2
2024/02/25 00:00:36;;;;;;;1.10;1.10;;;;;;;-1.69;97.13;97611.00;4945623;28;20038;-91
2024/02/25 00:03:01;;;;;;;1.10;1.10;;;;;;;-1.90;96.97;97613.28;4938770;28;20027;-93
2024/02/25 00:05:28;;;;;;;1.10;1.10;;;;;;;-1.77;98.35;97615.81;4963175;29;20402;-91
2024/02/25 00:07:55;;;;;;;;;;;;;;;-1.58;98.81;97618.69;4960062;28;20038;-92
2024/02/25 00:10:20;;;;;;;1.10;1.10;;;;;;;-1.77;98.58;97622.72;4959176;28;19914;-91
2024/02/25 00:12:46;;;;;;;1.10;1.10;;;;;;;-1.90;98.16;97618.50;4947318;28;20031;-91
2024/02/25 00:15:11;;;;;;;1.10;1.10;;;;;;;-1.89;97.96;97625.53;4964545;28;20050;-93
2024/02/25 00:17:37;;;;;;;1.10;1.10;;;;;;;-1.69;98.67;97627.59;4966031;28;20504;-92
2024/02/25 00:20:04;;;;;;;1.10;1.10;;;;;;;-1.73;98.75;97627.31;4967115;28;20053;-90
2024/02/25 00:22:29;;;;;;;1.20;1.20;;;;;;;-1.55;99.78;97624.06;4952295;28;20031;-95
2024/02/25 00:24:55;;;;;;;1.17;1.17;;;;;;;-1.92;99.73;97631.47;4955778;28;20138;-93
2024/02/25 00:27:20;;;;;;;1.20;1.20;;;;;;;-1.98;99.12;97638.94;4959745;28;20035;-94
2024/02/25 00:29:45;;;;;;;1.10;1.10;;;;;;;-1.93;99.00;97644.44;4949869;28;20047;-92
2024/02/25 00:32:12;;;;;;;1.10;1.10;;;;;;;-1.74;99.24;97633.38;4964332;28;20046;-91
2024/02/25 00:34:39;;;;;;;1.10;1.10;;;;;;;-1.85;99.35;97635.38;4962675;28;20046;-91
2024/02/25 00:37:04;;;;;;;1.10;1.10;;;;;;;-1.88;99.20;97638.69;4958236;28;20150;-90
2024/02/25 00:39:30;;;;;;;1.20;1.20;;;;;;;-2.05;98.94;97643.75;4960502;28;20451;-92
2024/02/25 00:41:56;;;;;;;1.10;1.10;;;;;;;-1.73;99.63;97641.28;4956844;28;20026;-91
2024/02/25 00:44:21;;;;;;;1.00;1.00;;;;;;;-2.12;99.77;97645.97;4960461;28;20041;-91
2024/02/25 00:46:47;;;;;;;1.10;1.10;;;;;;;-2.08;100.00;97641.81;4942516;28;20121;-91
2024/02/25 00:49:13;;;;;;;1.00;1.00;;;;;;;-1.90;100.00;97642.94;4938576;28;20035;-91
2024/02/25 00:51:39;;;;;;;1.15;1.15;;;;;;;-1.93;100.00;97641.84;4957914;28;20420;-91
2024/02/25 00:54:05;;;;;;;1.20;1.20;;;;;;;-2.08;100.00;97641.81;4957509;28;20054;-91
2024/02/25 00:56:31;;;;;;;1.20;1.20;;;;;;;-2.17;99.71;97636.03;4958225;28;20901;-90
2024/02/25 00:58:56;;;;;;;1.15;1.15;;;;;;;-2.19;100.00;97641.19;4972949;28;20041;-91
2024/02/25 01:01:22;;;;;;;1.20;1.20;;;;;;;-2.17;100.00;97646.50;4952371;28;20145;-92
2024/02/25 01:03:47;;;;;;;1.10;1.10;;;;;;;-2.21;100.00;97642.78;4947024;28;20370;-92
2024/02/25 01:06:13;;;;;;;1.17;1.17;;;;;;;-1.96;100.00;97641.69;4939611;28;20241;-91
2024/02/25 01:08:41;;;;;;;1.08;1.08;;;;;;;-1.99;99.81;97646.72;4937878;28;20030;-90
2024/02/25 01:11:07;;;;;;;1.00;1.00;;;;;;;-2.21;100.00;97639.28;4933370;28;20038;-91
2024/02/25 01:13:33;;;;;;;1.13;1.13;;;;;;;-2.02;99.79;97629.13;4948396;28;20027;-92
2024/02/25 01:16:02;;;;;;;1.10;1.10;;;;;;;-2.02;99.86;97633.44;4964356;28;20038;-92
2024/02/25 01:18:31;;;;;;;1.00;1.00;;;;;;;-2.05;99.65;97631.56;4931677;28;20053;-92
2024/02/25 01:20:57;;;;;;;1.20;1.20;;;;;;;-2.20;99.41;97631.56;4943339;28;20131;-93
2024/02/25 01:23:22;;;;;;;1.20;1.20;;;;;;;-2.32;99.83;97629.09;4932658;28;20019;-92
2024/02/25 01:25:48;;;;;;;1.20;1.20;;;;;;;-2.27;100.00;97633.69;4962589;28;20767;-91
2024/02/25 01:28:13;;;;;;;1.10;1.10;;;;;;;-2.14;100.00;97631.00;4955927;28;20117;-92
2024/02/25 01:30:39;;;;;;;1.15;1.15;;;;;;;-2.10;100.00;97628.69;4936625;28;20401;-91
2024/02/25 01:33:05;;;;;;;1.20;1.20;;;;;;;-2.35;100.00;97622.75;4957917;28;20066;-91
2024/02/25 01:35:31;;;;;;;1.20;1.20;;;;;;;-2.48;99.94;97622.84;4950418;28;20035;-90
2024/02/25 01:37:56;;;;;;;1.20;1.20;;;;;;;-2.66;99.85;97626.13;4964619;28;20039;-91
2024/02/25 01:40:22;;;;;;;1.20;1.20;;;;;;;-2.31;99.97;97614.31;4954871;28;20062;-91
2024/02/25 01:43:14;;;;;;;1.10;1.10;;;;;;;-2.22;100.00;97621.81;4952906;28;20730;-93
2024/02/25 01:45:40;;;;;;;1.13;1.13;;;;;;;-2.18;99.71;97613.34;4965592;28;20051;-91
2024/02/25 01:48:08;;;;;;;1.10;1.10;;;;;;;-2.04;100.00;97607.22;4953396;28;20038;-91
2024/02/25 01:50:35;;;;;;;1.20;1.20;;;;;;;-2.05;99.92;97613.28;4939316;28;20047;-90
2024/02/25 01:53:04;;;;;;;1.13;1.13;;;;;;;-1.90;99.96;97608.06;4954166;28;20035;-91
2024/02/25 01:55:31;;;;;;;1.13;1.13;;;;;;;-2.03;99.68;97608.13;4952386;28;20050;-92
2024/02/25 01:58:01;;;;;;;1.17;1.17;;;;;;;-2.18;99.92;97608.13;4947819;28;20031;-91
2024/02/25 02:00:30;;;;;;;1.20;1.20;;;;;;;-2.21;99.66;97611.44;4953689;28;20090;-92
2024/02/25 02:02:58;;;;;;;1.17;1.17;;;;;;;-2.19;99.70;97606.31;4975185;28;20153;-89
2024/02/25 02:05:24;;;;;;;1.10;1.10;;;;;;;-2.29;99.69;97614.44;4954935;28;20090;-90
2024/02/25 02:07:50;;;;;;;1.20;1.20;;;;;;;-2.00;100.00;97616.16;4974582;28;20031;-90
2024/02/25 02:10:15;;;;;;;1.10;1.10;;;;;;;-2.22;100.00;97606.13;4939045;28;20113;-90
2024/02/25 02:12:44;;;;;;;1.10;1.10;;;;;;;-1.97;100.00;97604.16;4967211;28;20065;-90
2024/02/25 02:15:10;;;;;;;1.20;1.20;;;;;;;-1.96;100.00;97599.84;4944076;28;20065;-90
2024/02/25 02:17:40;;;;;;;1.20;1.20;;;;;;;-2.12;99.90;97587.56;4967858;28;20034;-91
2024/02/25 02:20:16;;;;;;;1.20;1.20;;;;;;;-2.16;99.58;97594.31;4955693;28;20066;-89
2024/02/25 02:22:43;;;;;;;1.10;1.10;;;;;;;-2.44;99.07;97588.28;4949726;28;20118;-89
2024/02/25 02:25:09;;;;;;;1.13;1.13;;;;;;;-2.58;99.60;97590.94;4948514;28;20038;-90
2024/02/25 02:27:36;;;;;;;1.10;1.10;;;;;;;-2.65;99.82;97582.63;4929034;28;20102;-90
2024/02/25 02:30:03;;;;;;;1.20;1.20;;;;;;;-2.59;100.00;97585.63;4936245;28;20030;-90
2024/02/25 02:32:29;;;;;;;1.20;1.20;;;;;;;-2.37;99.65;97575.66;4956546;28;20406;-91
2024/02/25 02:34:54;;;;;;;1.20;1.20;;;;;;;-2.16;100.00;97573.41;4938845;28;20474;-90
2024/02/25 02:37:19;;;;;;;1.20;1.20;;;;;;;-2.10;99.80;97572.91;4950669;28;20035;-91
2024/02/25 02:39:45;;;;;;;1.20;1.20;;;;;;;-2.12;99.55;97572.78;4972353;28;20431;-90
2024/02/25 02:42:11;;;;;;;1.20;1.20;;;;;;;-2.16;99.33;97569.91;4956719;28;20045;-90
2024/02/25 02:44:37;;;;;;;1.10;1.10;;;;;;;-2.28;99.16;97575.31;4958472;28;20022;-91
2024/02/25 02:47:03;;;;;;;1.10;1.10;;;;;;;-2.27;99.21;97573.59;4941899;28;20058;-91
2024/02/25 02:49:30;;;;;;;1.10;1.10;;;;;;;-2.34;99.20;97568.03;4943578;28;20549;-91
2024/02/25 02:51:58;;;;;;;1.20;1.20;;;;;;;-2.42;99.93;97569.28;4943175;28;20043;-91
2024/02/25 02:54:26;;;;;;;1.20;1.20;;;;;;;-2.44;100.00;97570.00;4939462;29;20035;-91
2024/02/25 02:56:51;;;;;;;1.10;1.10;;;;;;;-2.55;99.62;97571.94;4969540;28;20042;-90
2024/02/25 02:59:17;;;;;;;1.20;1.20;;;;;;;-2.58;99.90;97569.16;4942037;28;20050;-91
2024/02/25 03:01:42;;;;;;;1.20;1.20;;;;;;;-2.47;100.00;97565.47;4951381;28;20038;-91
2024/02/25 03:04:08;;;;;;;1.20;1.20;;;;;;;-2.48;100.00;97562.78;4972441;28;20114;-91
2024/02/25 03:06:34;;;;;;;1.17;1.17;;;;;;;-2.30;99.86;97555.13;4945513;28;20046;-90
2024/02/25 03:09:00;;;;;;;1.20;1.20;;;;;;;-2.30;99.64;97562.97;4937597;29;20035;-91
2024/02/25 03:11:26;;;;;;;1.20;1.20;;;;;;;-2.30;99.74;97560.34;4967426;28;20035;-93
2024/02/25 03:13:51;;;;;;;1.20;1.20;;;;;;;-2.55;99.43;97558.00;4938450;28;20101;-94
2024/02/25 03:16:17;;;;;;;1.20;1.20;;;;;;;-2.30;100.00;97548.19;4965995;28;20023;-92
2024/02/25 03:18:42;;;;;;;1.10;1.10;;;;;;;-2.38;99.86;97550.38;4965536;28;20031;-92
2024/02/25 03:21:08;;;;;;;1.20;1.20;;;;;;;-2.34;99.67;97548.84;4982772;28;20027;-93
2024/02/25 03:23:33;;;;;;;1.20;1.20;;;;;;;-2.45;99.43;97558.63;4957619;28;20027;-91
2024/02/25 03:25:59;;;;;;;1.10;1.10;;;;;;;-2.46;100.00;97558.53;4957443;28;20098;-93
2024/02/25 03:28:24;;;;;;;1.20;1.20;;;;;;;-2.51;99.89;97544.31;4958209;28;20058;-91
2024/02/25 03:30:50;;;;;;;1.15;1.15;;;;;;;-2.60;99.91;97539.44;4963701;28;20561;-90
2024/02/25 03:33:16;;;;;;;1.20;1.20;;;;;;;-2.51;99.84;97554.75;4943002;28;20043;-92
2024/02/25 03:35:41;;;;;;;1.20;1.20;;;;;;;-2.62;99.84;97548.91;4961339;28;20035;-91
2024/02/25 03:38:06;;;;;;;1.10;1.10;;;;;;;-2.61;99.50;97543.75;4966786;28;20107;-92
2024/02/25 03:40:32;;;;;;;1.20;1.20;;;;;;;-2.49;100.00;97545.28;4935793;28;20043;-92
2024/02/25 03:42:58;;;;;;;1.20;1.20;;;;;;;-2.44;99.65;97547.41;4938218;28;20045;-92
2024/02/25 03:45:23;;;;;;;1.20;1.20;;;;;;;-2.43;99.84;97559.63;4947721;28;20121;-92
2024/02/25 03:47:49;;;;;;;1.10;1.10;;;;;;;-2.35;99.75;97558.41;4938667;28;20073;-92
2024/02/25 03:50:17;;;;;;;1.17;1.17;;;;;;;-2.44;99.67;97554.34;4954859;28;20065;-91
2024/02/25 03:52:42;;;;;;;1.20;1.20;;;;;;;-2.55;99.65;97553.66;4941297;28;20347;-92
2024/02/25 03:55:08;;;;;;;1.13;1.13;;;;;;;-2.48;99.68;97550.63;4952016;28;20042;-91
2024/02/25 03:57:34;;;;;;;1.20;1.20;;;;;;;-2.70;99.65;97545.81;4953623;28;20117;-90
2024/02/25 03:59:59;;;;;;;1.10;1.10;;;;;;;-2.65;100.00;97548.69;4937416;28;20109;-91
2024/02/25 04:02:25;;;;;;;1.20;1.20;;;;;;;-2.71;100.00;97548.34;4943836;29;20589;-92
2024/02/25 04:04:52;;;;;;;1.10;1.10;;;;;;;-2.63;99.95;97542.78;4956543;28;20054;-90
2024/02/25 04:07:17;;;;;;;1.20;1.20;;;;;;;-2.65;99.96;97540.88;4956332;28;20090;-93
2024/02/25 04:09:43;;;;;;;1.10;1.10;;;;;;;-2.77;99.65;97542.75;4957302;28;20738;-91
2024/02/25 04:12:09;;;;;;;1.10;1.10;;;;;;;-2.50;100.00;97528.72;4940609;28;20034;-91
2024/02/25 04:14:34;;;;;;;1.20;1.20;;;;;;;-2.38;100.00;97521.63;4950980;28;20034;-91
2024/02/25 04:17:01;;;;;;;1.10;1.10;;;;;;;-2.01;99.96;97521.19;4954005;28;20169;-92
2024/02/25 04:19:27;;;;;;;1.10;1.10;;;;;;;-2.13;99.75;97517.84;4951698;28;20038;-91
2024/02/25 04:21:52;;;;;;;1.20;1.20;;;;;;;-2.34;99.08;97521.00;4946038;28;20039;-92
2024/02/25 04:24:17;;;;;;;1.10;1.10;;;;;;;-2.32;99.37;97515.88;4939455;28;20070;-91
2024/02/25 04:26:47;;;;;;;1.10;1.10;;;;;;;-2.48;99.32;97519.28;4955929;28;20632;-91
2024/02/25 04:29:13;;;;;;;1.20;1.20;;;;;;;-2.42;99.33;97511.81;4949783;28;20035;-91
2024/02/25 04:31:43;;;;;;;1.10;1.10;;;;;;;-2.51;99.54;97512.97;4937382;28;20023;-91
2024/02/25 04:34:09;;;;;;;1.10;1.10;;;;;;;-2.51;99.62;97513.88;4944681;28;20059;-91
2024/02/25 04:36:36;;;;;;;1.20;1.20;;;;;;;-2.45;99.53;97508.13;4938851;28;20106;-91
2024/02/25 04:39:03;;;;;;;1.20;1.20;;;;;;;-2.61;99.56;97511.53;4950776;28;20039;-92
2024/02/25 04:41:28;;;;;;;1.10;1.10;;;;;;;-2.38;99.84;97511.19;4936978;28;20133;-91
2024/02/25 04:43:54;;;;;;;1.20;1.20;;;;;;;-2.45;99.77;97502.88;4952720;28;20162;-91
2024/02/25 04:46:20;;;;;;;1.10;1.10;;;;;;;-2.51;99.43;97508.66;4956594;28;20070;-91
2024/02/25 04:48:48;;;;;;;1.10;1.10;;;;;;;-2.34;99.14;97507.97;4936590;28;20027;-91
2024/02/25 04:51:15;;;;;;;1.10;1.10;;;;;;;-2.14;99.68;97514.34;4941219;28;20023;-90
2024/02/25 04:53:40;;;;;;;1.10;1.10;;;;;;;-2.20;99.86;97506.16;4948834;28;20109;-91
2024/02/25 04:56:06;;;;;;;1.20;1.20;;;;;;;-2.34;99.66;97514.91;4954223;28;20054;-90
2024/02/25 04:58:32;;;;;;;1.10;1.10;;;;;;;-2.24;99.75;97512.00;4942336;28;20133;-91
2024/02/25 05:00:59;;;;;;;1.10;1.10;;;;;;;-1.82;99.43;97510.97;4950573;28;20038;-90
2024/02/25 05:03:24;;;;;;;1.20;1.20;;;;;;;-1.86;98.71;97513.31;4957358;28;20113;-91
2024/02/25 05:05:50;;;;;;;1.10;1.10;;;;;;;-1.94;98.58;97523.31;4979641;28;20066;-90
2024/02/25 05:08:15;;;;;;;1.20;1.20;;;;;;;-1.61;98.93;97519.13;4941087;28;20112;-91
2024/02/25 05:10:41;;;;;;;1.20;1.20;;;;;;;-1.52;96.98;97518.75;4942076;28;20039;-91
2024/02/25 05:13:07;;;;;;;1.20;1.20;;;;;;;-0.93;96.61;97517.59;4952666;28;20027;-93
2024/02/25 05:15:33;;;;;;;1.20;1.20;;;;;;;-1.05;96.45;97520.47;4936124;28;20111;-92
2024/02/25 05:17:59;;;;;;;1.13;1.13;;;;;;;-1.35;96.19;97515.31;4933584;28;20034;-92
2024/02/25 05:20:27;;;;;;;1.20;1.20;;;;;;;-1.31;96.31;97512.06;4933553;28;20058;-91
2024/02/25 05:22:54;;;;;;;1.10;1.10;;;;;;;-0.64;96.11;97511.28;4954708;28;20453;-91
2024/02/25 05:25:20;;;;;;;1.10;1.10;;;;;;;-0.73;93.67;97516.03;4954443;28;20098;-90
2024/02/25 05:27:46;;;;;;;1.02;1.02;;;;;;;0.02;91.85;97509.44;4941613;28;20045;-91
2024/02/25 05:30:13;;;;;;;1.20;1.20;;;;;;;0.50;90.40;97511.81;4972202;28;20066;-91
2024/02/25 05:32:41;;;;;;;;;;;;;;;1.03;87.45;97494.19;4953934;28;20117;-91
2024/02/25 05:35:07;;;;;;;1.20;1.20;;;;;;;1.69;85.12;97498.03;4942101;28;20372;-90
2024/02/25 05:37:33;;;;;;;1.13;1.13;;;;;;;1.95;82.60;97492.97;4955655;28;20043;-90
2024/02/25 05:39:59;;;;;;;1.00;1.00;;;;;;;1.54;84.53;97500.88;4929315;28;20422;-91
2024/02/25 05:42:25;;;;;;;1.05;1.05;;;;;;;1.53;84.51;97506.06;4945038;28;20033;-90
2024/02/25 05:44:53;;;;;;;1.00;1.00;;;;;;;2.48;79.57;97499.56;4969494;28;20031;-91
2024/02/25 05:47:20;;;;;;;1.00;1.00;;;;;;;2.04;81.18;97499.53;4958587;28;20109;-91
2024/02/25 05:49:47;;;;;;;1.08;1.08;;;;;;;1.85;82.23;97496.94;4953737;28;20035;-90
2024/02/25 05:52:14;;;;;;;1.10;1.10;;;;;;;1.69;83.62;97499.75;4933183;29;20035;-91
2024/02/25 05:54:40;;;;;;;1.00;1.00;;;;;;;2.18;80.72;97494.84;4941524;28;20401;-90
2024/02/25 05:57:05;;;;;;;0.98;0.98;;;;;;;1.67;82.93;97504.03;4939887;28;20045;-90
2024/02/25 05:59:31;;;;;;;1.00;1.00;;;;;;;1.60;83.56;97502.00;4950864;28;20023;-90
2024/02/25 06:01:57;;;;;;;1.10;1.10;;;;;;;0.99;86.11;97506.25;4948466;28;20046;-89
2024/02/25 06:04:23;;;;;;;1.10;1.10;;;;;;;0.92;86.27;97506.81;4937336;28;20043;-90
2024/02/25 06:06:52;;;;;;;1.00;1.00;;;;;;;0.98;86.04;97504.47;4949391;28;20065;-91
2024/02/25 06:09:18;;;;;;;1.00;1.00;;;;;;;0.55;87.61;97506.81;4945214;28;20072;-92
2024/02/25 06:11:43;;;;;;;1.10;1.10;;;;;;;0.32;88.65;97504.78;4950285;28;20102;-91
2024/02/25 06:14:09;;;;;;;1.10;1.10;;;;;;;0.02;90.47;97509.44;4955216;28;20066;-92
2024/02/25 06:16:34;;;;;;;1.00;1.00;;;;;;;-0.06;90.40;97503.78;4947931;28;20058;-91
2024/02/25 06:19:01;;;;;;;1.10;1.10;;;;;;;-0.29;91.41;97518.34;4951140;28;20054;-90
2024/02/25 06:21:26;;;;;;;1.10;1.10;;;;;;;-0.23;91.92;97520.41;4976153;28;20038;-92
2024/02/25 06:23:52;;;;;;;1.10;1.10;;;;;;;-0.44;92.04;97515.84;4945522;28;20274;-90
2024/02/25 06:26:17;;;;;;;1.00;1.00;;;;;;;-0.65;92.53;97527.81;4936964;28;20059;-91
2024/02/25 06:28:44;;;;;;;1.08;1.08;;;;;;;-0.77;92.69;97525.44;4953895;28;20043;-91
2024/02/25 06:31:10;;;;;;;1.13;1.13;;;;;;;-0.89;92.99;97520.47;4942984;28;20065;-89
2024/02/25 06:33:35;;;;;;;1.10;1.10;;;;;;;-0.86;93.61;97525.88;4941822;28;20134;-90
2024/02/25 06:36:04;;;;;;;1.05;1.05;;;;;;;-0.65;93.47;97525.22;4938875;28;20101;-90
2024/02/25 06:38:29;;;;;;;1.10;1.10;;;;;;;-0.56;93.77;97521.34;4937706;28;20069;-90
2024/02/25 06:40:55;;;;;;;1.02;1.02;;;;;;;-0.31;94.09;97526.13;4944054;28;20482;-89
2024/02/25 06:43:23;;;;;;;1.10;1.10;;;;;;;0.02;92.18;97526.06;4959475;28;20046;-90
2024/02/25 06:45:48;;;;;;;1.10;1.10;;;;;;;0.69;91.11;97517.97;4943460;28;20031;-91
2024/02/25 06:48:14;;;;;;;1.10;1.10;;;;;;;1.09;88.77;97523.34;4967967;28;20514;-91
2024/02/25 06:50:39;;;;;;;1.10;1.10;;;;;;;1.47;87.28;97518.94;4966938;28;20568;-89
2024/02/25 06:53:05;;;;;;;1.10;1.10;;;;;;;1.99;86.29;97529.09;4970519;28;20062;-91
2024/02/25 06:55:30;;;;;;;1.00;1.00;;;;;;;2.55;87.47;97522.69;4941437;28;20038;-92
2024/02/25 06:57:59;;;;;;;0.90;0.90;;;;;;;2.86;84.13;97532.69;4940517;28;20035;-92
2024/02/25 07:00:25;;;;;;;1.00;1.00;;;;;;;2.89;83.02;97531.94;4936506;28;20850;-92
2024/02/25 07:02:54;;;;;;;1.00;1.00;;;;;;;3.70;84.76;97525.38;4953656;28;20125;-92
2024/02/25 07:05:20;;;;;;;1.00;1.00;;;;;;;4.12;82.08;97522.47;4942069;28;20500;-92
2024/02/25 07:07:50;;;;;;;0.90;0.90;;;;;;;4.75;82.65;97522.81;4972701;28;20616;-92
2024/02/25 07:10:27;;;;;;;0.90;0.90;;;;;;;4.59;80.04;97523.13;4958223;28;20137;-92
2024/02/25 07:12:53;;;;;;;0.90;0.90;;;;;;;5.08;78.85;97516.78;4956391;28;20535;-93
2024/02/25 07:15:18;;;;;;;0.70;0.70;;;;;;;5.16;77.45;97517.91;4940766;28;20062;-93
2024/02/25 07:17:46;;;;;;;0.90;0.90;;;;;;;4.88;81.36;97519.69;4960820;28;20047;-92
2024/02/25 07:20:11;;;;;;;0.90;0.90;;;;;;;5.22;78.96;97514.53;4957114;28;20482;-93
2024/02/25 07:22:37;;;;;;;0.90;0.90;;;;;;;6.34;77.08;97511.59;4951411;28;20037;-92
2024/02/25 07:25:04;;;;;;;0.80;0.80;;;;;;;6.93;68.50;97512.16;4937809;28;20038;-93
2024/02/25 07:27:30;;;;;;;0.77;0.77;;;;;;;7.35;66.97;97511.34;4970984;28;20046;-93
2024/02/25 07:29:55;;;;;;;0.70;0.70;;;;;;;7.34;64.27;97504.25;4944794;28;20030;-94
2024/02/25 07:32:21;;;;;;;0.70;0.70;;;;;;;6.72;69.14;97513.41;4952913;28;20043;-93
2024/02/25 07:34:46;;;;;;;0.70;0.70;;;;;;;6.67;69.59;97515.94;4941667;28;20160;-93
2024/02/25 07:37:12;;;;;;;0.70;0.70;;;;;;;6.37;66.19;97514.31;4957088;28;20119;-92
2024/02/25 07:39:38;;;;;;;0.70;0.70;;;;;;;6.74;69.73;97519.63;4947237;28;20031;-92
2024/02/25 07:42:04;;;;;;;0.70;0.70;;;;;;;6.60;68.58;97514.00;4961093;28;20034;-92
2024/02/25 07:44:29;;;;;;;0.70;0.70;;;;;;;6.90;65.41;97525.38;4940978;28;20366;-92
2024/02/25 07:46:55;;;;;;;0.70;0.70;;;;;;;6.78;63.57;97526.81;4950218;28;20125;-93
2024/02/25 07:49:20;;;;;;;0.80;0.80;;;;;;;6.95;64.58;97525.47;4943437;28;21262;-92
2024/02/25 07:51:46;;;;;;;0.65;0.65;;;;;;;6.89;62.83;97530.59;4935070;28;20065;-91
2024/02/25 07:54:11;;;;;;;0.73;0.73;;;;;;;6.58;63.85;97523.66;4938768;28;20059;-92
2024/02/25 07:56:37;;;;;;;0.80;0.80;;;;;;;6.34;64.50;97531.88;4940783;28;20561;-92
2024/02/25 07:59:02;;;;;;;0.70;0.70;;;;;;;6.33;63.67;97531.00;4956056;28;20082;-92
2024/02/25 08:01:29;;;;;;;0.60;0.60;;;;;;;5.97;64.36;97525.59;4957444;28;20120;-93
2024/02/25 08:03:54;;;;;;;0.80;0.80;;;;;;;5.78;65.36;97529.44;4961457;28;20138;-92
2024/02/25 08:06:25;;;;;;;0.90;0.90;;;;;;;5.82;64.62;97527.78;4972908;28;20133;-91
2024/02/25 08:08:51;;;;;;;0.80;0.80;;;;;;;5.78;63.85;97520.59;4957997;28;20082;-91
2024/02/25 08:11:17;;;;;;;0.90;0.90;;;;;;;6.00;63.89;97519.50;4943137;28;20109;-92
2024/02/25 08:13:42;;;;;;;0.90;0.90;;;;;;;6.04;63.36;97519.63;4935359;28;20031;-91
2024/02/25 08:16:07;;;;;;;0.80;0.80;;;;;;;6.20;63.22;97517.38;4933415;28;20042;-91
2024/02/25 08:18:34;;;;;;;0.90;0.90;;;;;;;6.39;62.85;97515.25;4940925;28;20061;-91
2024/02/25 08:21:01;;;;;;;0.90;0.90;;;;;;;6.29;62.74;97520.28;4944631;28;20033;-91
2024/02/25 08:23:26;;;;;;;0.90;0.90;;;;;;;6.57;63.48;97522.78;4963917;28;20046;-91
2024/02/25 08:25:52;;;;;;;0.80;0.80;;;;;;;6.31;62.95;97527.38;4939288;28;20039;-91
2024/02/25 08:28:17;;;;;;;0.80;0.80;;;;;;;6.59;61.22;97523.69;4939067;28;20085;-91
2024/02/25 08:30:43;;;;;;;0.75;0.75;;;;;;;6.87;61.44;97525.28;4953114;28;20030;-90
2024/02/25 08:33:08;;;;;;;0.80;0.80;;;;;;;7.02;60.30;97513.25;4952018;28;20401;-89
2024/02/25 08:35:35;;;;;;;0.70;0.70;;;;;;;7.12;60.38;97520.56;4960949;28;20070;-91
2024/02/25 08:38:00;;;;;;;0.80;0.80;;;;;;;7.38;60.04;97518.50;4958006;28;20018;-91
2024/02/25 08:40:35;;;;;;;0.73;0.73;;;;;;;7.42;59.43;97521.22;4955732;28;20066;-90
2024/02/25 08:43:02;;;;;;;0.80;0.80;;;;;;;7.59;59.22;97528.66;4936441;28;20039;-91
2024/02/25 08:45:28;;;;;;;0.70;0.70;;;;;;;7.60;59.00;97525.16;4956294;28;20037;-90
2024/02/25 08:47:53;;;;;;;0.70;0.70;;;;;;;7.91;59.20;97522.28;4940647;28;20073;-89
2024/02/25 08:50:19;;;;;;;0.70;0.70;;;;;;;8.13;59.40;97520.91;4950632;28;20718;-91
2024/02/25 08:52:45;;;;;;;0.70;0.70;;;;;;;8.24;58.82;97526.47;4953213;28;20601;-92
2024/02/25 08:55:11;;;;;;;0.75;0.75;;;;;;;8.46;58.19;97511.81;4942122;28;20113;-91
2024/02/25 08:57:37;;;;;;;0.70;0.70;;;;;;;8.56;57.55;97513.75;4943263;28;20030;-93
2024/02/25 09:00:07;;;;;;;0.80;0.80;;;;;;;8.02;59.36;97518.94;4967918;28;20046;-91
2024/02/25 09:02:33;;;;;;;0.77;0.77;;;;;;;8.31;57.41;97516.81;4950948;28;20117;-91
2024/02/25 09:04:58;;;;;;;0.80;0.80;;;;;;;8.01;55.38;97515.38;4941774;28;20022;-92
2024/02/25 09:07:24;;;;;;;0.70;0.70;;;;;;;8.41;55.56;97518.81;4937843;28;20039;-91
2024/02/25 09:09:51;;;;;;;0.80;0.80;;;;;;;8.13;54.73;97515.59;4936890;28;20035;-91
2024/02/25 09:12:16;;;;;;;0.80;0.80;;;;;;;7.84;55.25;97517.69;4953149;28;20040;-92
2024/02/25 09:14:42;;;;;;;0.80;0.80;;;;;;;8.15;54.70;97513.88;4938733;28;20137;-91
2024/02/25 09:17:08;;;;;;;0.70;0.70;;;;;;;8.24;54.93;97510.50;4936300;28;20474;-91
2024/02/25 09:19:35;;;;;;;0.80;0.80;;;;;;;8.42;53.61;97497.56;4937184;28;20121;-91
2024/02/25 09:22:00;;;;;;;0.80;0.80;;;;;;;8.42;53.88;97502.88;4952736;28;20037;-91
2024/02/25 09:24:26;;;;;;;0.80;0.80;;;;;;;8.45;52.81;97489.66;4953997;28;20050;-92
2024/02/25 09:26:52;;;;;;;0.75;0.75;;;;;;;8.29;53.91;97502.59;4939906;28;20061;-90
2024/02/25 09:29:23;;;;;;;0.75;0.75;;;;;;;8.79;52.27;97494.66;4951895;28;20504;-92
2024/02/25 09:31:48;;;;;;;0.70;0.70;;;;;;;9.18;51.60;97492.59;4941869;28;20486;-91
2024/02/25 09:34:14;;;;;;;0.70;0.70;;;;;;;9.57;50.79;97483.34;4949455;28;20045;-91
2024/02/25 09:36:44;;;;;;;0.70;0.70;;;;;;;9.39;50.75;97483.09;4966062;28;20034;-91
2024/02/25 09:39:09;;;;;;;0.70;0.70;;;;;;;9.92;49.22;97481.16;4935876;28;20169;-93
2024/02/25 09:41:42;;;;;;;0.70;0.70;;;;;;;9.95;49.01;97474.94;4937689;28;20130;-91
2024/02/25 09:44:27;;;;;;;0.70;0.70;;;;;;;9.82;49.14;97473.94;4964666;28;20034;-91
2024/02/25 09:46:55;;;;;;;0.70;0.70;;;;;;;9.67;49.17;97469.28;4967573;28;20031;-91
2024/02/25 09:49:27;;;;;;;0.70;0.70;;;;;;;9.72;49.48;97475.56;4938618;28;20126;-91
2024/02/25 09:51:55;;;;;;;0.70;0.70;;;;;;;10.13;49.53;97469.81;4958837;28;20039;-91
2024/02/25 09:54:20;;;;;;;0.80;0.80;;;;;;;10.18;48.43;97477.88;4951836;28;20031;-91
2024/02/25 09:56:50;;;;;;;0.77;0.77;;;;;;;10.34;48.66;97477.16;4957409;28;20117;-91
2024/02/25 09:59:17;;;;;;;0.70;0.70;;;;;;;10.62;47.59;97480.09;4951770;28;20047;-93
2024/02/25 10:01:47;;;;;;;0.70;0.70;;;;;;;11.41;46.33;97467.31;4952501;28;20042;-91
2024/02/25 10:04:16;;;;;;;0.70;0.70;;;;;;;11.71;44.55;97458.56;4971073;28;20038;-93
2024/02/25 10:06:42;;;;;;;0.70;0.70;;;;;;;11.88;44.41;97455.09;4971821;28;20066;-91
2024/02/25 10:09:12;;;;;;;0.60;0.60;;;;;;;12.05;43.96;97456.03;4939981;28;20034;-90
2024/02/25 10:11:44;;;;;;;0.60;0.60;;;;;;;11.12;44.48;97453.81;4967285;28;20118;-91
2024/02/25 10:14:10;;;;;;;0.60;0.60;;;;;;;11.14;45.67;97454.69;4955143;28;20127;-91
2024/02/25 10:16:36;;;;;;;0.60;0.60;;;;;;;11.05;45.73;97458.19;4942945;28;20532;-91
2024/02/25 10:19:01;;;;;;;0.60;0.60;;;;;;;10.99;47.39;97444.81;4957021;28;20035;-90
2024/02/25 10:21:27;;;;;;;0.70;0.70;;;;;;;12.04;44.56;97444.47;4952739;28;20065;-91
2024/02/25 10:23:54;;;;;;;0.70;0.70;;;;;;;12.93;42.39;97440.94;4939468;28;20035;-90
2024/02/25 10:26:25;;;;;;;0.60;0.60;;;;;;;13.31;41.63;97430.19;4943430;28;20081;-89
2024/02/25 10:29:05;;;;;;;0.60;0.60;;;;;;;12.91;41.83;97440.06;4959158;28;20031;-90
2024/02/25 10:31:31;;;;;;;0.60;0.60;;;;;;;11.67;44.82;97440.72;4973519;28;20043;-90
2024/02/25 10:34:00;;;;;;;0.60;0.60;;;;;;;11.67;44.60;97432.72;4971926;28;21353;-91
2024/02/25 10:36:26;;;;;;;0.60;0.60;;;;;;;12.01;43.23;97432.84;4939556;28;20050;-90
2024/02/25 10:38:55;;;;;;;0.70;0.70;;;;;;;12.47;42.13;97419.56;4956706;28;20043;-89
2024/02/25 10:41:21;;;;;;;0.70;0.70;;;;;;;12.77;41.93;97424.00;4959305;28;20050;-91
2024/02/25 10:43:51;;;;;;;0.60;0.60;;;;;;;12.11;41.70;97421.28;4971040;28;20838;-90
2024/02/25 10:46:20;;;;;;;0.68;0.68;;;;;;;11.66;41.54;97422.91;4971828;28;20030;-90
2024/02/25 10:48:49;;;;;;;0.70;0.70;;;;;;;15.44;35.95;97405.50;4975000;28;20042;-91
2024/02/25 10:51:15;;;;;;;0.50;0.50;;;;;;;15.99;35.00;97399.44;4971310;28;20097;-91
2024/02/25 10:53:41;;;;;;;0.40;0.40;;;;;;;14.55;36.17;97398.28;4977268;28;20031;-91
2024/02/25 10:56:14;;;;;;;0.50;0.50;;;;;;;13.17;38.63;97399.84;4966524;28;20042;-92
2024/02/25 10:58:40;;;;;;;0.40;0.40;;;;;;;13.03;39.67;97400.78;4968970;28;20074;-91
2024/02/25 11:01:07;;;;;;;0.50;0.50;;;;;;;12.80;39.50;97392.81;4968706;28;20046;-91
2024/02/25 11:03:33;;;;;;;0.50;0.50;;;;;;;13.43;39.81;97392.69;4985719;28;20091;-94
2024/02/25 11:06:01;;;;;;;0.60;0.60;;;;;;;12.99;39.31;97388.31;4991985;28;20099;-92
2024/02/25 11:08:38;;;;;;;0.52;0.52;;;;;;;13.05;38.52;97385.59;4994444;28;20062;-91
2024/02/25 11:11:09;;;;;;;0.60;0.60;;;;;;;13.83;38.17;97377.28;4994190;28;20042;-90
2024/02/25 11:13:40;;;;;;;0.50;0.50;;;;;;;13.44;38.45;97375.69;4970074;28;20039;-93
2024/02/25 11:16:14;;;;;;;0.50;0.50;;;;;;;12.47;40.25;97372.31;4980860;28;20046;-94
2024/02/25 11:18:43;;;;;;;0.50;0.50;;;;;;;12.61;39.14;97368.75;4967846;28;20035;-89
2024/02/25 11:21:11;;;;;;;0.50;0.50;;;;;;;11.41;40.78;97379.19;4959179;28;20512;-92
2024/02/25 11:23:42;;;;;;;0.60;0.60;;;;;;;11.62;41.44;97367.69;4974746;28;20027;-89
2024/02/25 11:26:37;;;;;;;0.50;0.50;;;;;;;11.55;41.28;97369.47;4960623;28;20063;-90
2024/02/25 11:29:21;;;;;;;0.80;0.80;;;;;;;12.62;38.65;97367.84;4978310;28;20121;-90
2024/02/25 11:31:50;;;;;;;0.60;0.60;;;;;;;13.31;37.08;97357.88;4962889;28;20038;-91
2024/02/25 11:34:30;;;;;;;0.70;0.70;;;;;;;13.33;37.39;97356.09;4951395;28;20130;-91